Time;durP1;ratioP1;P1;durP2;ratioP2;P2;SDS_P1;SDS_P2;PMS_P1;PMS_P2;Temp;Humidity;BMP_temperature;BMP_pressure;BME280_temperature;BME280_humidity;BME280_pressure;Samples;Min_cycle;Max_cycle;Signal;HPM_P1;HPM_P2
2024/02/14 06:00:48;;;;;;;10.05;5.47;;;5.20;89.20;;;;;;4672687;23;20400;-78
2024/02/14 06:02:50;;;;;;;11.75;5.80;;;5.20;89.20;;;;;;4053938;29;20104;-78
2024/02/14 06:04:53;;;;;;;12.82;5.97;;;5.20;89.70;;;;;;4053950;29;20044;-78
2024/02/14 06:06:55;;;;;;;11.65;5.78;;;5.20;90.00;;;;;;4053915;29;20101;-78
2024/02/14 06:08:57;;;;;;;10.70;5.97;;;5.20;89.30;;;;;;4053888;29;20478;-79
2024/02/14 06:10:59;;;;;;;11.00;6.18;;;5.20;89.20;;;;;;4053988;29;20052;-78
2024/02/14 06:13:01;;;;;;;9.73;5.28;;;5.30;88.80;;;;;;4053875;29;20052;-78
2024/02/14 06:15:03;;;;;;;9.77;5.60;;;5.30;88.60;;;;;;4053286;29;20044;-79
2024/02/14 06:17:06;;;;;;;12.38;6.13;;;5.30;88.40;;;;;;4053966;29;20048;-78
2024/02/14 06:19:09;;;;;;;12.55;6.75;;;5.30;89.20;;;;;;4053787;29;20108;-81
2024/02/14 06:21:11;;;;;;;12.98;6.30;;;5.20;89.70;;;;;;4053904;29;20407;-78
2024/02/14 06:23:13;;;;;;;12.10;6.20;;;5.10;90.00;;;;;;4053750;29;20502;-78
2024/02/14 06:25:16;;;;;;;13.20;6.40;;;5.20;89.70;;;;;;4053771;29;20056;-77
2024/02/14 06:27:18;;;;;;;10.57;5.60;;;5.10;90.00;;;;;;4053535;29;20045;-78
2024/02/14 06:29:19;;;;;;;10.05;5.03;;;5.20;89.80;;;;;;4053628;29;20116;-78
2024/02/14 06:31:20;;;;;;;10.23;5.18;;;5.20;89.60;;;;;;4053395;29;20483;-80
2024/02/14 06:33:24;;;;;;;12.15;5.93;;;5.30;89.20;;;;;;4053467;29;20052;-79
2024/02/14 06:35:25;;;;;;;9.57;6.43;;;5.40;89.00;;;;;;4053510;29;20068;-79
2024/02/14 06:37:27;;;;;;;12.90;6.30;;;5.30;89.10;;;;;;4053601;29;20048;-78
2024/02/14 06:39:29;;;;;;;13.27;5.93;;;5.30;89.20;;;;;;4053509;29;20458;-78
2024/02/14 06:41:31;;;;;;;10.43;5.53;;;5.30;89.20;;;;;;4053293;29;20100;-79
2024/02/14 06:43:33;;;;;;;9.68;5.65;;;5.30;88.90;;;;;;4053451;29;20053;-76
2024/02/14 06:45:34;;;;;;;11.32;6.43;;;5.30;88.50;;;;;;4053492;29;20052;-78
2024/02/14 06:47:36;;;;;;;9.55;5.90;;;5.30;89.10;;;;;;4053505;29;20099;-78
2024/02/14 06:49:39;;;;;;;10.30;5.93;;;5.20;89.70;;;;;;4053512;29;20139;-77
2024/02/14 06:51:41;;;;;;;12.45;6.72;;;5.10;90.00;;;;;;4053442;29;20076;-79
2024/02/14 06:53:43;;;;;;;10.45;6.10;;;5.20;89.60;;;;;;4053374;29;20048;-78
2024/02/14 06:55:45;;;;;;;13.45;6.53;;;5.20;89.40;;;;;;4053510;29;20048;-78
2024/02/14 06:57:47;;;;;;;12.85;6.45;;;5.00;90.20;;;;;;4053158;29;20052;-79
2024/02/14 06:59:48;;;;;;;11.80;6.68;;;5.00;90.30;;;;;;4053280;29;20053;-76
2024/02/14 07:01:51;;;;;;;11.05;6.38;;;5.00;90.30;;;;;;4053004;29;20467;-77
2024/02/14 07:03:53;;;;;;;12.77;6.75;;;5.10;90.30;;;;;;4053447;29;20049;-78
2024/02/14 07:05:56;;;;;;;9.80;6.00;;;5.10;90.40;;;;;;4053418;29;20113;-76
2024/02/14 07:07:58;;;;;;;11.13;6.47;;;5.10;90.50;;;;;;4053125;29;20053;-79
2024/02/14 07:09:59;;;;;;;12.35;6.85;;;5.20;90.30;;;;;;4053099;29;20502;-78
2024/02/14 07:12:01;;;;;;;11.63;6.88;;;5.30;90.10;;;;;;4053548;29;20052;-77
2024/02/14 07:14:02;;;;;;;11.32;6.78;;;5.30;90.00;;;;;;4053497;29;20053;-77
2024/02/14 07:16:05;;;;;;;11.40;6.43;;;5.40;90.00;;;;;;4054044;29;20645;-77
2024/02/14 07:18:09;;;;;;;13.88;7.00;;;5.40;89.70;;;;;;4053671;29;20100;-77
2024/02/14 07:20:12;;;;;;;10.93;6.88;;;5.40;89.30;;;;;;4053849;29;20491;-76
2024/02/14 07:22:16;;;;;;;12.00;6.47;;;5.50;89.10;;;;;;4056646;29;20108;-76
2024/02/14 07:24:18;;;;;;;10.57;5.90;;;5.50;89.20;;;;;;4057831;29;20083;-78
2024/02/14 07:26:20;;;;;;;10.02;5.93;;;5.50;89.00;;;;;;4057925;29;20076;-79
2024/02/14 07:28:22;;;;;;;9.07;5.35;;;5.50;88.80;;;;;;4060151;29;20088;-80
2024/02/14 07:30:24;;;;;;;9.63;5.63;;;5.60;88.60;;;;;;4058461;29;20052;-76
2024/02/14 07:32:27;;;;;;;10.60;5.78;;;5.60;88.30;;;;;;4056564;29;20072;-77
2024/02/14 07:34:29;;;;;;;9.43;5.38;;;5.60;88.80;;;;;;4056378;29;20053;-80
2024/02/14 07:36:31;;;;;;;12.02;6.00;;;5.70;88.40;;;;;;4057004;29;20052;-76
2024/02/14 07:38:34;;;;;;;9.60;5.60;;;5.70;88.30;;;;;;4043076;29;20049;-79
2024/02/14 07:40:36;;;;;;;10.32;5.75;;;5.70;88.60;;;;;;4040866;29;20045;-78
2024/02/14 07:42:38;;;;;;;12.23;5.75;;;5.70;88.50;;;;;;4047897;29;20475;-78
2024/02/14 07:44:40;;;;;;;11.88;5.60;;;5.80;88.40;;;;;;4056124;29;20049;-80
2024/02/14 07:46:42;;;;;;;12.48;6.20;;;5.70;89.80;;;;;;4056593;29;20044;-77
2024/02/14 07:48:44;;;;;;;11.27;6.50;;;5.60;90.20;;;;;;4056185;29;20053;-79
2024/02/14 07:50:45;;;;;;;9.48;6.10;;;5.60;90.30;;;;;;4056049;29;20132;-78
2024/02/14 07:52:47;;;;;;;11.80;5.90;;;5.70;89.80;;;;;;4055829;29;20048;-79
2024/02/14 07:54:54;;;;;;;10.10;5.90;;;5.80;89.80;;;;;;4055936;29;20084;-78
2024/02/14 07:56:56;;;;;;;13.45;6.47;;;5.80;89.10;;;;;;4056072;29;20068;-77
2024/02/14 07:58:58;;;;;;;71.53;40.10;;;5.90;89.10;;;;;;4056853;29;20056;-76
2024/02/14 08:00:59;;;;;;;29.40;15.50;;;6.00;89.50;;;;;;4055701;29;20065;-79
2024/02/14 08:03:03;;;;;;;16.23;8.07;;;6.10;89.80;;;;;;4057905;29;20116;-76
2024/02/14 08:05:05;;;;;;;10.82;6.03;;;6.10;87.90;;;;;;4057135;29;20139;-78
2024/02/14 08:07:07;;;;;;;26.38;13.18;;;6.20;87.50;;;;;;4056060;29;20056;-76
2024/02/14 08:09:09;;;;;;;16.15;7.28;;;6.20;86.90;;;;;;4055725;29;20060;-77
2024/02/14 08:11:14;;;;;;;8.30;5.03;;;6.30;87.90;;;;;;4058212;29;20051;-76
2024/02/14 08:13:17;;;;;;;10.80;5.13;;;6.30;88.20;;;;;;4058782;29;20135;-77
2024/02/14 08:15:20;;;;;;;10.73;5.00;;;6.40;88.20;;;;;;4059387;29;20047;-77
2024/02/14 08:17:22;;;;;;;8.45;4.72;;;6.50;87.80;;;;;;4059450;29;20053;-77
2024/02/14 08:19:24;;;;;;;8.73;5.38;;;6.50;87.80;;;;;;4060621;29;20465;-76
2024/02/14 08:21:26;;;;;;;11.32;4.75;;;6.60;87.50;;;;;;4059125;29;20051;-77
2024/02/14 08:23:28;;;;;;;11.52;5.70;;;6.60;87.20;;;;;;4058575;29;20447;-77
2024/02/14 08:25:30;;;;;;;9.88;4.97;;;6.60;86.90;;;;;;4060798;29;20059;-76
2024/02/14 08:27:33;;;;;;;7.88;4.40;;;6.70;86.90;;;;;;4051832;29;20081;-79
2024/02/14 08:29:35;;;;;;;9.30;4.85;;;6.70;86.40;;;;;;4043854;29;20418;-76
2024/02/14 08:31:37;;;;;;;7.85;4.22;;;6.80;85.90;;;;;;4043002;29;20049;-79
2024/02/14 08:33:39;;;;;;;8.98;4.68;;;6.80;86.30;;;;;;4057867;29;20053;-78
2024/02/14 08:35:41;;;;;;;9.35;4.47;;;6.70;86.90;;;;;;4058698;29;20056;-77
2024/02/14 08:37:44;;;;;;;9.95;4.45;;;6.70;86.90;;;;;;4058170;29;20055;-76
2024/02/14 08:39:46;;;;;;;10.43;4.95;;;6.70;87.10;;;;;;4059476;29;20056;-76
2024/02/14 08:41:48;;;;;;;8.25;4.93;;;6.80;87.20;;;;;;4057402;29;20057;-76
2024/02/14 08:43:51;;;;;;;10.63;4.88;;;6.80;87.80;;;;;;4057153;29;20049;-77
2024/02/14 08:45:53;;;;;;;11.52;5.22;;;6.80;87.70;;;;;;4056942;29;20096;-79
2024/02/14 08:47:55;;;;;;;11.82;4.60;;;6.80;87.60;;;;;;4055772;29;20052;-78
2024/02/14 08:49:57;;;;;;;8.20;4.60;;;6.80;87.50;;;;;;4056075;29;20546;-77
2024/02/14 08:51:59;;;;;;;7.22;4.45;;;7.00;86.70;;;;;;4056935;29;20048;-78
2024/02/14 08:54:04;;;;;;;9.60;4.78;;;7.00;85.90;;;;;;4057198;29;20466;-77
2024/02/14 08:56:07;;;;;;;8.52;4.50;;;7.10;85.80;;;;;;4058103;29;20139;-77
2024/02/14 08:58:11;;;;;;;6.97;4.00;;;7.20;85.60;;;;;;4059345;29;20410;-76
2024/02/14 09:00:19;;;;;;;9.35;4.28;;;7.30;85.70;;;;;;4058649;29;20056;-76
2024/02/14 09:02:22;;;;;;;9.52;4.70;;;7.40;85.40;;;;;;4057076;29;20124;-77
2024/02/14 09:04:24;;;;;;;8.13;4.07;;;7.50;85.20;;;;;;4056844;29;20104;-78
2024/02/14 09:06:26;;;;;;;7.75;3.70;;;7.50;84.40;;;;;;4055668;29;20100;-76
2024/02/14 09:08:28;;;;;;;6.85;3.42;;;7.60;84.30;;;;;;4055537;29;20049;-79
2024/02/14 09:10:30;;;;;;;7.88;3.95;;;7.50;83.50;;;;;;4055918;29;20059;-80
2024/02/14 09:12:32;;;;;;;6.63;3.95;;;7.50;83.90;;;;;;4056656;29;20414;-76
2024/02/14 09:14:34;;;;;;;11.52;6.30;;;7.60;84.60;;;;;;4056927;29;20055;-75
2024/02/14 09:16:37;;;;;;;9.75;4.75;;;7.60;85.50;;;;;;4058517;29;20057;-76
2024/02/14 09:18:39;;;;;;;8.05;4.07;;;7.70;85.10;;;;;;4041540;29;20049;-77
2024/02/14 09:20:41;;;;;;;7.50;3.40;;;7.70;84.80;;;;;;4044726;29;20052;-77
2024/02/14 09:22:43;;;;;;;8.15;4.15;;;7.70;84.90;;;;;;4054728;29;20053;-78
2024/02/14 09:24:45;;;;;;;9.82;3.50;;;7.70;84.90;;;;;;4054808;29;20542;-80
2024/02/14 09:26:47;;;;;;;8.57;3.80;;;7.80;84.70;;;;;;4055234;29;20448;-77
2024/02/14 09:28:50;;;;;;;7.47;3.78;;;7.90;84.80;;;;;;4056040;29;20049;-77
2024/02/14 09:30:52;;;;;;;8.23;3.85;;;8.00;84.50;;;;;;4055268;29;20061;-79
2024/02/14 09:32:55;;;;;;;7.90;2.80;;;8.10;84.70;;;;;;4055263;29;20377;-77
2024/02/14 09:34:56;;;;;;;9.98;5.28;;;8.20;84.20;;;;;;4055327;29;20447;-78
2024/02/14 09:36:59;;;;;;;6.43;3.40;;;8.20;82.70;;;;;;4056058;29;20053;-76
2024/02/14 09:39:00;;;;;;;6.85;3.13;;;8.30;82.20;;;;;;4053751;29;20222;-76
2024/02/14 09:41:16;;;;;;;7.85;3.05;;;8.30;81.60;;;;;;4055326;29;20055;-78
2024/02/14 09:43:39;;;;;;;9.25;3.58;;;8.40;80.70;;;;;;4055318;29;20084;-78
2024/02/14 09:45:43;;;;;;;7.53;3.10;;;8.50;80.30;;;;;;4057255;29;20468;-77
2024/02/14 09:47:47;;;;;;;6.78;2.72;;;8.60;79.80;;;;;;4057238;29;20418;-76
2024/02/14 09:49:52;;;;;;;7.15;3.08;;;8.70;79.00;;;;;;4057091;29;20048;-77
2024/02/14 09:51:56;;;;;;;12.18;3.47;;;8.80;78.80;;;;;;4057017;29;20136;-77
2024/02/14 09:54:01;;;;;;;5.40;2.80;;;8.80;78.60;;;;;;4057028;29;20053;-79
2024/02/14 09:56:04;;;;;;;6.90;3.03;;;8.90;77.60;;;;;;4054354;29;20085;-77
2024/02/14 09:58:07;;;;;;;7.35;2.90;;;9.00;77.60;;;;;;4054141;29;20530;-80
2024/02/14 10:00:10;;;;;;;7.22;2.75;;;9.10;77.30;;;;;;4054246;29;20470;-78
2024/02/14 10:02:11;;;;;;;6.53;3.15;;;9.10;77.10;;;;;;4053931;29;20423;-78
2024/02/14 10:04:13;;;;;;;7.85;2.85;;;9.30;77.30;;;;;;4054146;29;20105;-79
2024/02/14 10:06:18;;;;;;;7.90;2.83;;;9.30;76.70;;;;;;4052927;29;20466;-77
2024/02/14 10:08:20;;;;;;;8.30;3.38;;;9.40;76.20;;;;;;4038447;29;20473;-77
2024/02/14 10:10:21;;;;;;;7.07;2.42;;;9.50;76.00;;;;;;4039643;29;20116;-77
2024/02/14 10:12:23;;;;;;;6.25;2.63;;;9.50;75.50;;;;;;4045707;29;20049;-79
2024/02/14 10:14:25;;;;;;;5.50;2.30;;;9.60;75.40;;;;;;4054470;29;20059;-79
2024/02/14 10:16:27;;;;;;;6.55;2.25;;;9.70;74.80;;;;;;4054138;29;20061;-79
2024/02/14 10:18:29;;;;;;;7.20;3.08;;;9.80;74.20;;;;;;4054037;29;20108;-78
2024/02/14 10:20:33;;;;;;;6.57;2.63;;;9.90;74.50;;;;;;4053938;29;20057;-78
2024/02/14 10:22:37;;;;;;;6.05;3.03;;;10.00;74.10;;;;;;4041575;29;20415;-76
2024/02/14 10:24:39;;;;;;;7.60;2.70;;;10.10;74.20;;;;;;4043102;29;20049;-78
2024/02/14 10:26:42;;;;;;;5.70;2.40;;;10.20;74.00;;;;;;4042618;29;20049;-77
2024/02/14 10:28:45;;;;;;;7.18;2.30;;;10.30;74.10;;;;;;4043718;29;20069;-79
2024/02/14 10:30:49;;;;;;;5.47;2.58;;;10.30;73.80;;;;;;4042801;29;20495;-79
2024/02/14 10:32:51;;;;;;;7.00;2.60;;;10.40;73.60;;;;;;4042628;29;20057;-78
2024/02/14 10:34:53;;;;;;;6.68;2.80;;;10.40;73.70;;;;;;4043137;29;20060;-77
2024/02/14 10:36:59;;;;;;;7.22;2.50;;;10.40;74.10;;;;;;4041606;29;20053;-76
2024/02/14 10:39:04;;;;;;;4.15;2.15;;;10.40;74.10;;;;;;4039364;29;20113;-73
2024/02/14 10:41:07;;;;;;;3.83;1.73;;;10.50;74.20;;;;;;4038090;29;20076;-74
2024/02/14 10:43:10;;;;;;;5.55;1.92;;;10.60;74.40;;;;;;4038473;29;20049;-80
2024/02/14 10:45:11;;;;;;;4.82;1.77;;;10.80;74.20;;;;;;4038598;29;20052;-78
2024/02/14 10:47:20;;;;;;;4.18;1.73;;;10.90;73.40;;;;;;4037868;29;20057;-75
2024/02/14 10:49:26;;;;;;;4.97;1.63;;;10.90;73.10;;;;;;4021156;29;20064;-79
2024/02/14 10:51:32;;;;;;;4.57;1.80;;;11.00;72.60;;;;;;4038121;29;20089;-78
2024/02/14 10:53:35;;;;;;;4.85;1.75;;;11.00;72.90;;;;;;4036706;29;20436;-78
2024/02/14 10:55:41;;;;;;;6.20;1.90;;;11.10;72.80;;;;;;4036117;29;20476;-79
2024/02/14 10:57:45;;;;;;;4.65;1.63;;;11.10;73.40;;;;;;4049846;29;20487;-79
2024/02/14 10:59:49;;;;;;;5.43;1.70;;;11.20;72.20;;;;;;4052012;29;20052;-77
2024/02/14 11:01:52;;;;;;;5.13;1.45;;;11.30;71.90;;;;;;4052539;29;20056;-76
2024/02/14 11:03:55;;;;;;;6.53;1.50;;;11.40;71.90;;;;;;4051968;29;20096;-77
2024/02/14 11:06:03;;;;;;;5.00;1.73;;;11.40;72.10;;;;;;4052022;29;20064;-76
2024/02/14 11:08:09;;;;;;;3.65;1.40;;;11.50;72.10;;;;;;4051778;29;20057;-76
2024/02/14 11:10:16;;;;;;;5.75;1.77;;;11.50;72.00;;;;;;4051579;29;20080;-78
2024/02/14 11:12:24;;;;;;;4.75;1.50;;;11.60;72.10;;;;;;4051577;29;20056;-80
2024/02/14 11:14:32;;;;;;;5.53;1.63;;;11.60;71.90;;;;;;4051888;29;20077;-77
2024/02/14 11:16:35;;;;;;;4.82;1.63;;;11.70;72.10;;;;;;4053067;29;20507;-77
2024/02/14 11:18:39;;;;;;;4.70;1.80;;;11.70;72.10;;;;;;4052732;29;20075;-77
2024/02/14 11:20:42;;;;;;;3.80;1.55;;;11.70;72.30;;;;;;4051977;29;20554;-77
2024/02/14 11:22:57;;;;;;;4.53;1.50;;;11.70;72.00;;;;;;4052070;29;20061;-77
2024/02/14 11:25:08;;;;;;;;;;;11.80;72.40;;;;;;4051510;29;20048;-76
2024/02/14 11:27:13;;;;;;;5.68;1.70;;;11.90;71.90;;;;;;4051675;29;20010;-78
2024/02/14 11:29:16;;;;;;;5.13;1.45;;;11.90;71.90;;;;;;4052091;29;20052;-77
2024/02/14 11:31:18;;;;;;;4.47;1.60;;;11.90;72.20;;;;;;4051277;29;20155;-78
2024/02/14 11:33:24;;;;;;;3.95;1.42;;;11.90;72.80;;;;;;4051621;29;20514;-77
2024/02/14 11:35:25;;;;;;;;;;;11.90;73.10;;;;;;4050067;29;20075;-77
2024/02/14 11:37:31;;;;;;;4.20;1.00;;;11.90;73.60;;;;;;4051894;29;19931;-77
2024/02/14 11:39:34;;;;;;;3.03;0.95;;;12.00;73.90;;;;;;4051604;29;20057;-76
2024/02/14 11:41:37;;;;;;;3.53;0.88;;;12.10;73.80;;;;;;4051478;29;20059;-80
2024/02/14 11:43:40;;;;;;;3.33;1.20;;;12.10;73.90;;;;;;4051821;29;20147;-76
2024/02/14 11:45:45;;;;;;;1.95;0.90;;;12.20;73.90;;;;;;4051622;29;20139;-74
2024/02/14 11:47:48;;;;;;;3.35;0.80;;;12.10;73.90;;;;;;4042901;29;20049;-76
2024/02/14 11:49:50;;;;;;;2.35;0.77;;;12.20;74.30;;;;;;4036213;29;20056;-77
2024/02/14 11:51:53;;;;;;;3.08;1.00;;;12.30;74.00;;;;;;4036871;29;20086;-78
2024/02/14 11:53:54;;;;;;;2.50;0.70;;;12.40;74.10;;;;;;4037017;29;20475;-78
2024/02/14 11:56:00;;;;;;;1.73;0.73;;;12.40;73.50;;;;;;4039021;29;20049;-78
2024/02/14 11:58:01;;;;;;;;;;;12.50;73.50;;;;;;4039236;29;20053;-77
2024/02/14 12:00:04;;;;;;;2.95;0.80;;;12.60;73.70;;;;;;4037261;29;20393;-75
2024/02/14 12:02:09;;;;;;;1.88;0.50;;;12.60;74.00;;;;;;4051262;29;20475;-76
2024/02/14 12:04:11;;;;;;;1.95;0.60;;;12.50;74.40;;;;;;4052590;29;20048;-76
2024/02/14 12:06:15;;;;;;;3.58;0.80;;;12.50;73.50;;;;;;4052975;29;20056;-77
2024/02/14 12:08:17;;;;;;;2.88;0.70;;;12.50;73.90;;;;;;4053150;29;20483;-77
2024/02/14 12:10:21;;;;;;;2.05;0.60;;;12.60;74.00;;;;;;4054556;29;20132;-77
2024/02/14 12:12:23;;;;;;;2.50;0.77;;;12.70;73.70;;;;;;4054144;29;20060;-78
2024/02/14 12:14:27;;;;;;;1.92;0.65;;;12.80;73.50;;;;;;4055131;29;20452;-78
2024/02/14 12:16:29;;;;;;;2.28;0.80;;;12.90;72.60;;;;;;4054993;29;20067;-77
2024/02/14 12:18:34;;;;;;;2.00;0.80;;;12.80;72.70;;;;;;4054673;29;20554;-76
2024/02/14 12:20:36;;;;;;;2.13;0.70;;;13.00;72.50;;;;;;4054713;29;20077;-77
2024/02/14 12:22:38;;;;;;;1.90;0.60;;;13.10;72.40;;;;;;4054065;29;20487;-78
2024/02/14 12:24:40;;;;;;;2.30;0.80;;;13.10;71.90;;;;;;4054136;29;20491;-77
2024/02/14 12:26:43;;;;;;;2.22;0.85;;;13.20;71.80;;;;;;4054713;29;20128;-76
2024/02/14 12:28:49;;;;;;;2.60;0.80;;;13.10;71.20;;;;;;4054454;29;20060;-77
2024/02/14 12:30:55;;;;;;;2.25;0.90;;;13.00;71.70;;;;;;4053640;29;20049;-76
2024/02/14 12:33:01;;;;;;;1.52;0.60;;;13.20;71.50;;;;;;4054430;29;20135;-79
2024/02/14 12:35:07;;;;;;;2.88;0.88;;;13.20;71.00;;;;;;4052441;29;20049;-77
2024/02/14 12:37:09;;;;;;;1.80;0.60;;;13.30;71.20;;;;;;4053795;29;20528;-76
2024/02/14 12:39:12;;;;;;;2.75;0.70;;;13.50;70.40;;;;;;4053926;29;20057;-77
2024/02/14 12:41:14;;;;;;;1.77;0.70;;;13.70;70.10;;;;;;4054146;29;20056;-81
2024/02/14 12:43:17;;;;;;;1.98;0.60;;;13.80;71.30;;;;;;4055244;29;20052;-79
2024/02/14 12:45:19;;;;;;;2.42;0.90;;;13.90;71.00;;;;;;4057393;29;20060;-79
2024/02/14 12:47:22;;;;;;;2.25;0.82;;;14.00;69.60;;;;;;4055157;29;20041;-79
2024/02/14 12:49:25;;;;;;;1.42;0.60;;;14.00;69.00;;;;;;4057214;29;20048;-81
2024/02/14 12:51:29;;;;;;;2.47;0.77;;;14.00;69.20;;;;;;4069466;29;20119;-78
2024/02/14 12:53:31;;;;;;;1.88;0.60;;;13.90;69.10;;;;;;4065232;29;20486;-80
2024/02/14 12:55:34;;;;;;;2.50;0.70;;;13.90;68.70;;;;;;4053898;29;20056;-78
2024/02/14 12:57:36;;;;;;;2.38;0.80;;;13.90;69.30;;;;;;4053687;29;20055;-79
2024/02/14 12:59:38;;;;;;;3.33;0.80;;;13.80;69.00;;;;;;4054236;29;20056;-77
2024/02/14 13:01:40;;;;;;;1.45;0.63;;;13.90;69.10;;;;;;4054298;29;20063;-79
2024/02/14 13:03:42;;;;;;;1.63;0.63;;;13.90;68.90;;;;;;4054351;29;20414;-79
2024/02/14 13:05:43;;;;;;;1.38;0.50;;;14.00;68.90;;;;;;4054299;29;20052;-77
2024/02/14 13:07:47;;;;;;;2.15;0.70;;;14.20;68.80;;;;;;4053886;29;20052;-77
2024/02/14 13:09:49;;;;;;;2.97;0.60;;;14.70;68.50;;;;;;4054496;29;20060;-77
2024/02/14 13:11:52;;;;;;;1.50;0.52;;;15.10;66.40;;;;;;4054011;29;20080;-78
2024/02/14 13:13:54;;;;;;;1.70;0.60;;;15.00;65.20;;;;;;4053733;29;20127;-80
2024/02/14 13:15:56;;;;;;;1.02;0.40;;;15.10;65.30;;;;;;4055221;29;20112;-78
2024/02/14 13:17:58;;;;;;;1.25;0.50;;;15.10;64.70;;;;;;4054093;29;20053;-77
2024/02/14 13:20:01;;;;;;;1.10;0.50;;;15.10;64.50;;;;;;4058714;29;20107;-79
2024/02/14 13:22:04;;;;;;;1.05;0.38;;;15.00;65.10;;;;;;4069966;29;20048;-78
2024/02/14 13:24:08;;;;;;;1.15;0.47;;;14.80;65.20;;;;;;4064813;29;20502;-76
2024/02/14 13:26:10;;;;;;;1.38;0.55;;;14.70;65.50;;;;;;4053425;29;20048;-78
2024/02/14 13:28:12;;;;;;;1.75;0.50;;;14.80;65.20;;;;;;4053499;29;20100;-77
2024/02/14 13:30:14;;;;;;;1.40;0.50;;;14.60;66.00;;;;;;4053906;29;20088;-79
2024/02/14 13:32:16;;;;;;;1.63;0.60;;;14.70;66.40;;;;;;4053792;29;20060;-76
2024/02/14 13:34:19;;;;;;;1.33;0.52;;;14.60;66.10;;;;;;4054587;29;20443;-78
2024/02/14 13:36:23;;;;;;;0.98;0.40;;;14.50;66.50;;;;;;4051986;29;20057;-78
2024/02/14 13:38:25;;;;;;;1.95;0.60;;;14.70;66.10;;;;;;4053516;29;20055;-78
2024/02/14 13:40:29;;;;;;;0.77;0.40;;;14.70;66.30;;;;;;4053985;29;20066;-76
2024/02/14 13:42:31;;;;;;;1.55;0.43;;;15.00;65.80;;;;;;4056051;29;20045;-76
2024/02/14 13:44:33;;;;;;;0.98;0.40;;;15.10;65.40;;;;;;4056710;29;20053;-78
2024/02/14 13:46:35;;;;;;;1.05;0.50;;;15.40;64.60;;;;;;4054405;29;20048;-78
2024/02/14 13:48:37;;;;;;;1.95;0.60;;;16.00;63.50;;;;;;4053839;29;20056;-79
2024/02/14 13:50:40;;;;;;;1.17;0.45;;;16.00;62.40;;;;;;4053288;29;20410;-78
2024/02/14 13:52:41;;;;;;;1.80;0.70;;;16.20;62.30;;;;;;4053165;29;20194;-78
2024/02/14 13:54:43;;;;;;;1.58;0.55;;;16.60;61.00;;;;;;4053742;29;20462;-76
2024/02/14 13:56:48;;;;;;;1.13;0.50;;;16.80;59.50;;;;;;4053484;29;20059;-76
2024/02/14 13:58:50;;;;;;;1.92;0.55;;;16.10;60.90;;;;;;4052718;29;20053;-79
2024/02/14 14:00:52;;;;;;;1.63;0.55;;;15.90;62.40;;;;;;4053029;29;20160;-78
2024/02/14 14:02:53;;;;;;;1.02;0.43;;;15.40;62.70;;;;;;4052719;29;20052;-78
2024/02/14 14:04:55;;;;;;;1.73;0.50;;;14.90;64.10;;;;;;4052080;29;20147;-79
2024/02/14 14:06:58;;;;;;;1.27;0.40;;;14.70;65.70;;;;;;4052516;29;20057;-79
2024/02/14 14:09:00;;;;;;;1.48;0.50;;;14.60;66.40;;;;;;4052593;29;20380;-78
2024/02/14 14:11:03;;;;;;;1.88;0.50;;;14.60;67.10;;;;;;4052498;29;20159;-76
2024/02/14 14:13:06;;;;;;;1.60;0.60;;;14.50;66.80;;;;;;4052289;29;20116;-76
2024/02/14 14:15:09;;;;;;;1.58;0.50;;;14.40;68.00;;;;;;4052401;29;20048;-76
2024/02/14 14:17:11;;;;;;;1.35;0.55;;;14.30;68.10;;;;;;4051810;29;20143;-77
2024/02/14 14:19:11;;;;;;;1.48;0.50;;;14.30;68.50;;;;;;4051954;29;20463;-77
2024/02/14 14:21:13;;;;;;;1.48;0.60;;;14.40;68.30;;;;;;4052109;29;20061;-79
2024/02/14 14:23:15;;;;;;;2.38;0.65;;;14.60;67.80;;;;;;4051795;29;20056;-76
2024/02/14 14:25:17;;;;;;;2.40;0.80;;;14.70;67.30;;;;;;4051652;29;20055;-80
2024/02/14 14:27:21;;;;;;;0.70;0.40;;;14.50;67.40;;;;;;4051739;29;20080;-78
2024/02/14 14:29:24;;;;;;;1.65;0.60;;;14.40;67.90;;;;;;4052142;29;20049;-78
2024/02/14 14:31:26;;;;;;;1.60;0.50;;;14.30;68.00;;;;;;4051591;29;20067;-79
2024/02/14 14:33:29;;;;;;;2.63;0.60;;;14.20;68.20;;;;;;4052137;29;20526;-79
2024/02/14 14:35:33;;;;;;;1.23;0.57;;;14.20;68.90;;;;;;4050114;29;20096;-78
2024/02/14 14:37:35;;;;;;;2.63;0.55;;;14.20;69.10;;;;;;4052067;29;20529;-77
2024/02/14 14:39:36;;;;;;;1.88;0.55;;;14.20;69.10;;;;;;4051814;29;20138;-78
2024/02/14 14:41:38;;;;;;;1.38;0.50;;;14.30;69.00;;;;;;4052000;29;20463;-78
2024/02/14 14:43:40;;;;;;;1.73;0.57;;;14.30;68.80;;;;;;4051286;29;20052;-79
2024/02/14 14:45:44;;;;;;;1.80;0.60;;;14.40;68.70;;;;;;4052102;29;20116;-79
2024/02/14 14:47:46;;;;;;;1.77;0.50;;;14.60;68.00;;;;;;4051619;29;20059;-77
2024/02/14 14:49:48;;;;;;;1.92;0.57;;;14.60;67.40;;;;;;4051674;29;20455;-78
2024/02/14 14:51:50;;;;;;;2.85;0.60;;;14.70;67.60;;;;;;4051744;29;20120;-77
2024/02/14 14:53:52;;;;;;;0.95;0.40;;;14.60;68.50;;;;;;4052101;29;20538;-77
2024/02/14 14:55:56;;;;;;;1.60;0.50;;;14.50;67.30;;;;;;4051342;29;20131;-77
2024/02/14 14:57:58;;;;;;;1.10;0.47;;;14.30;67.90;;;;;;4052139;29;20132;-79
2024/02/14 15:00:00;;;;;;;1.98;0.50;;;14.50;68.70;;;;;;4051560;29;20052;-77
2024/02/14 15:02:05;;;;;;;0.57;0.32;;;14.60;67.70;;;;;;4051088;29;20064;-78
2024/02/14 15:04:07;;;;;;;1.92;0.63;;;14.50;67.70;;;;;;4051594;29;20091;-78
2024/02/14 15:06:09;;;;;;;1.85;0.60;;;14.70;67.60;;;;;;4051708;29;20542;-78
2024/02/14 15:08:09;;;;;;;1.58;0.57;;;14.70;67.10;;;;;;4050188;29;20060;-78
2024/02/14 15:10:12;;;;;;;1.45;0.50;;;14.60;67.50;;;;;;4046627;29;20048;-78
2024/02/14 15:12:14;;;;;;;2.10;0.70;;;14.50;67.60;;;;;;4038195;29;20057;-78
2024/02/14 15:14:15;;;;;;;1.25;0.50;;;14.60;67.60;;;;;;4044730;29;20080;-81
2024/02/14 15:16:17;;;;;;;1.17;0.50;;;14.60;67.80;;;;;;4046049;29;20411;-80
2024/02/14 15:18:20;;;;;;;2.38;0.68;;;14.50;67.50;;;;;;4048154;29;20059;-79
2024/02/14 15:20:22;;;;;;;1.20;0.50;;;14.50;67.60;;;;;;4042386;29;20049;-79
2024/02/14 15:22:27;;;;;;;1.58;0.50;;;14.60;67.50;;;;;;4037704;29;20049;-82
2024/02/14 15:24:29;;;;;;;2.60;0.63;;;14.50;67.50;;;;;;4036356;29;20061;-79
2024/02/14 15:26:38;;;;;;;2.72;0.80;;;14.50;67.60;;;;;;4041863;29;20052;-80
2024/02/14 15:28:41;;;;;;;1.65;0.60;;;14.50;67.60;;;;;;4036388;29;20056;-78
2024/02/14 15:35:23;;;;;;;2.70;0.57;;;14.70;67.60;;;;;;4034539;29;20426;-80
2024/02/14 15:37:25;;;;;;;1.25;0.50;;;14.80;67.40;;;;;;4036873;29;20108;-79
2024/02/14 15:39:27;;;;;;;3.15;0.65;;;14.80;67.10;;;;;;4036464;29;20143;-78
2024/02/14 15:41:28;;;;;;;1.70;0.47;;;14.80;66.90;;;;;;4036815;29;20270;-79
2024/02/14 15:43:32;;;;;;;2.75;0.73;;;14.60;67.30;;;;;;4036082;29;20057;-80
2024/02/14 15:45:32;;;;;;;2.00;0.63;;;14.50;67.60;;;;;;4043101;29;20479;-80
2024/02/14 15:47:34;;;;;;;1.85;0.60;;;14.50;68.00;;;;;;4054724;29;20055;-78
2024/02/14 15:49:35;;;;;;;1.65;0.50;;;14.50;68.10;;;;;;4039566;29;20113;-79
2024/02/14 15:51:40;;;;;;;3.35;0.60;;;14.50;68.40;;;;;;4045212;29;20112;-79
2024/02/14 15:53:42;;;;;;;1.48;0.57;;;14.40;68.30;;;;;;4040506;29;20053;-78
2024/02/14 15:55:45;;;;;;;1.35;0.55;;;14.40;68.50;;;;;;4050364;29;20463;-78
2024/02/14 15:57:47;;;;;;;2.20;0.70;;;14.30;68.60;;;;;;4040894;29;20053;-78
2024/02/14 15:59:49;;;;;;;1.73;0.65;;;14.20;68.90;;;;;;4040430;29;20049;-80
2024/02/14 16:01:51;;;;;;;1.90;0.60;;;14.20;69.20;;;;;;4044546;29;20471;-79
2024/02/14 16:03:53;;;;;;;1.20;0.50;;;14.10;69.30;;;;;;4048941;29;20148;-80
2024/02/14 16:05:55;;;;;;;1.83;0.70;;;14.00;69.80;;;;;;4039021;29;20392;-79
2024/02/14 16:07:58;;;;;;;1.92;0.50;;;14.00;70.00;;;;;;4041690;29;20099;-78
2024/02/14 16:10:00;;;;;;;2.50;0.68;;;13.90;70.20;;;;;;4039080;29;20175;-77
2024/02/14 16:12:02;;;;;;;16.42;8.23;;;13.90;70.40;;;;;;4038570;29;20091;-78
2024/02/14 16:14:05;;;;;;;31.13;15.23;;;13.90;70.70;;;;;;4038703;29;20056;-80
2024/02/14 16:16:08;;;;;;;3.63;1.40;;;13.80;70.80;;;;;;4040874;29;20053;-79
2024/02/14 16:18:10;;;;;;;3.17;0.80;;;13.80;71.00;;;;;;4046812;29;20488;-79
2024/02/14 16:20:14;;;;;;;2.00;0.70;;;13.80;71.10;;;;;;4039069;29;20105;-78
2024/02/14 16:22:17;;;;;;;1.38;0.57;;;13.70;71.50;;;;;;4040371;29;20056;-80
2024/02/14 16:24:21;;;;;;;2.30;0.65;;;13.70;71.40;;;;;;4038383;29;20041;-80
2024/02/14 16:26:23;;;;;;;2.65;0.90;;;13.60;71.50;;;;;;4038593;29;20396;-78
2024/02/14 16:28:24;;;;;;;1.58;0.60;;;13.60;71.70;;;;;;4054576;29;20119;-78
2024/02/14 16:30:26;;;;;;;1.60;0.60;;;13.50;71.80;;;;;;4038721;29;20424;-79
2024/02/14 16:32:28;;;;;;;1.85;0.60;;;13.50;71.90;;;;;;4038674;29;20057;-79
2024/02/14 16:34:29;;;;;;;2.25;0.60;;;13.50;72.00;;;;;;4046790;29;20111;-79
2024/02/14 16:36:31;;;;;;;3.00;0.80;;;13.50;72.10;;;;;;4038744;29;20499;-79
2024/02/14 16:38:32;;;;;;;1.77;0.70;;;13.50;72.20;;;;;;4038252;29;20060;-77
2024/02/14 16:40:35;;;;;;;2.72;0.90;;;13.50;72.20;;;;;;4038257;29;20049;-78
2024/02/14 16:42:36;;;;;;;1.85;0.80;;;13.50;72.20;;;;;;4038726;29;20064;-78
2024/02/14 16:44:39;;;;;;;2.67;1.00;;;13.40;72.30;;;;;;4049387;29;20077;-78
2024/02/14 16:46:40;;;;;;;2.83;0.85;;;13.40;72.50;;;;;;4050125;29;20131;-80